sensor_id;sensor_type;location;lat;lon;timestamp;pressure;altitude;pressure_sealevel;temperature;humidity
6567;BME280;3317;43.994;22.878;2023-01-13T00:00:32;101683.78;;;5.41;82.30
6567;BME280;3317;43.994;22.878;2023-01-13T00:03:01;101686.47;;;5.41;82.64
6567;BME280;3317;43.994;22.878;2023-01-13T00:05:28;101686.69;;;5.38;83.45
6567;BME280;3317;43.994;22.878;2023-01-13T00:07:55;101691.97;;;5.40;83.73
6567;BME280;3317;43.994;22.878;2023-01-13T00:10:22;101681.50;;;5.35;83.65
6567;BME280;3317;43.994;22.878;2023-01-13T00:12:48;101695.41;;;5.42;83.65
6567;BME280;3317;43.994;22.878;2023-01-13T00:15:15;101696.38;;;5.41;83.52
6567;BME280;3317;43.994;22.878;2023-01-13T00:17:42;101700.69;;;5.43;83.69
6567;BME280;3317;43.994;22.878;2023-01-13T00:20:11;101699.75;;;5.44;82.63
6567;BME280;3317;43.994;22.878;2023-01-13T00:22:38;101698.94;;;5.42;82.47
6567;BME280;3317;43.994;22.878;2023-01-13T00:25:05;101704.31;;;5.42;82.26
6567;BME280;3317;43.994;22.878;2023-01-13T00:27:32;101700.69;;;5.43;82.27
6567;BME280;3317;43.994;22.878;2023-01-13T00:29:59;101698.78;;;5.45;81.77
6567;BME280;3317;43.994;22.878;2023-01-13T00:32:28;101707.81;;;5.44;81.66
6567;BME280;3317;43.994;22.878;2023-01-13T00:34:54;101704.31;;;5.42;81.56
6567;BME280;3317;43.994;22.878;2023-01-13T00:37:23;101692.25;;;5.35;81.77
6567;BME280;3317;43.994;22.878;2023-01-13T00:39:50;101709.63;;;5.44;82.30
6567;BME280;3317;43.994;22.878;2023-01-13T00:42:17;101702.59;;;5.41;82.54
6567;BME280;3317;43.994;22.878;2023-01-13T00:45:01;101705.41;;;5.40;83.09
6567;BME280;3317;43.994;22.878;2023-01-13T00:47:28;101703.84;;;5.35;83.73
6567;BME280;3317;43.994;22.878;2023-01-13T00:49:56;101701.97;;;5.38;84.03
6567;BME280;3317;43.994;22.878;2023-01-13T00:52:24;101699.34;;;5.36;84.32
6567;BME280;3317;43.994;22.878;2023-01-13T00:54:51;101701.97;;;5.38;84.38
6567;BME280;3317;43.994;22.878;2023-01-13T00:57:18;101699.16;;;5.39;84.67
6567;BME280;3317;43.994;22.878;2023-01-13T00:59:45;101696.38;;;5.41;84.86
6567;BME280;3317;43.994;22.878;2023-01-13T01:02:12;101698.94;;;5.42;84.74
6567;BME280;3317;43.994;22.878;2023-01-13T01:04:39;101700.88;;;5.40;85.00
6567;BME280;3317;43.994;22.878;2023-01-13T01:07:07;101693.78;;;5.39;85.10
6567;BME280;3317;43.994;22.878;2023-01-13T01:09:35;101688.53;;;5.38;85.14
6567;BME280;3317;43.994;22.878;2023-01-13T01:12:04;101679.78;;;5.34;85.27
6567;BME280;3317;43.994;22.878;2023-01-13T01:14:31;101683.78;;;5.41;85.15
6567;BME280;3317;43.994;22.878;2023-01-13T01:16:58;101687.34;;;5.42;85.03
6567;BME280;3317;43.994;22.878;2023-01-13T01:19:25;101684.75;;;5.40;84.78
6567;BME280;3317;43.994;22.878;2023-01-13T01:21:52;101678.31;;;5.43;85.19
6567;BME280;3317;43.994;22.878;2023-01-13T01:24:19;101674.66;;;5.44;85.29
6567;BME280;3317;43.994;22.878;2023-01-13T01:26:47;101672.75;;;5.46;84.93
6567;BME280;3317;43.994;22.878;2023-01-13T01:29:14;101682.34;;;5.50;84.73
6567;BME280;3317;43.994;22.878;2023-01-13T01:31:42;101675.91;;;5.53;84.09
6567;BME280;3317;43.994;22.878;2023-01-13T01:34:08;101678.59;;;5.53;83.73
6567;BME280;3317;43.994;22.878;2023-01-13T01:36:35;101677.53;;;5.55;83.57
6567;BME280;3317;43.994;22.878;2023-01-13T01:39:03;101680.16;;;5.57;83.47
6567;BME280;3317;43.994;22.878;2023-01-13T01:41:33;101671.97;;;5.58;83.31
6567;BME280;3317;43.994;22.878;2023-01-13T01:44:04;101668.50;;;5.56;83.39
6567;BME280;3317;43.994;22.878;2023-01-13T01:46:34;101663.06;;;5.58;83.04
6567;BME280;3317;43.994;22.878;2023-01-13T01:49:06;101675.41;;;5.60;82.62
6567;BME280;3317;43.994;22.878;2023-01-13T01:51:36;101664.56;;;5.62;81.95
6567;BME280;3317;43.994;22.878;2023-01-13T01:54:05;101664.66;;;5.60;82.09
6567;BME280;3317;43.994;22.878;2023-01-13T01:56:33;101668.09;;;5.62;81.81
6567;BME280;3317;43.994;22.878;2023-01-13T01:59:02;101660.91;;;5.63;81.43
6567;BME280;3317;43.994;22.878;2023-01-13T02:01:30;101656.41;;;5.63;81.54
6567;BME280;3317;43.994;22.878;2023-01-13T02:04:01;101660.72;;;5.66;81.08
6567;BME280;3317;43.994;22.878;2023-01-13T02:06:30;101658.13;;;5.64;81.21
6567;BME280;3317;43.994;22.878;2023-01-13T02:08:58;101658.22;;;5.63;81.33
6567;BME280;3317;43.994;22.878;2023-01-13T02:11:27;101653.91;;;5.60;81.71
6567;BME280;3317;43.994;22.878;2023-01-13T02:14:14;101637.50;;;5.50;82.42
6567;BME280;3317;43.994;22.878;2023-01-13T02:16:49;101653.91;;;5.60;82.90
6567;BME280;3317;43.994;22.878;2023-01-13T02:19:51;101661.78;;;5.63;83.24
6567;BME280;3317;43.994;22.878;2023-01-13T02:22:37;101649.41;;;5.61;83.42
6567;BME280;3317;43.994;22.878;2023-01-13T02:28:15;101651.03;;;5.63;83.24
6567;BME280;3317;43.994;22.878;2023-01-13T02:30:52;101648.97;;;5.67;82.32
6567;BME280;3317;43.994;22.878;2023-01-13T02:33:49;101637.38;;;5.67;81.62
6567;BME280;3317;43.994;22.878;2023-01-13T02:36:23;101644.69;;;5.64;81.73
6567;BME280;3317;43.994;22.878;2023-01-13T02:38:55;101648.22;;;5.65;81.35
6567;BME280;3317;43.994;22.878;2023-01-13T02:41:29;101641.41;;;5.59;81.52
6567;BME280;3317;43.994;22.878;2023-01-13T02:44:19;101646.78;;;5.59;81.64
6567;BME280;3317;43.994;22.878;2023-01-13T02:46:54;101643.34;;;5.57;81.81
6567;BME280;3317;43.994;22.878;2023-01-13T02:49:29;101645.06;;;5.58;82.37
6567;BME280;3317;43.994;22.878;2023-01-13T02:52:02;101652.19;;;5.59;82.23
6567;BME280;3317;43.994;22.878;2023-01-13T02:54:32;101647.75;;;5.58;82.12
6567;BME280;3317;43.994;22.878;2023-01-13T02:57:02;101638.63;;;5.61;82.07
6567;BME280;3317;43.994;22.878;2023-01-13T02:59:31;101644.88;;;5.61;81.61
6567;BME280;3317;43.994;22.878;2023-01-13T03:02:01;101658.22;;;5.63;81.26
6567;BME280;3317;43.994;22.878;2023-01-13T03:04:47;101642.97;;;5.63;81.13
6567;BME280;3317;43.994;22.878;2023-01-13T03:07:33;101653.59;;;5.65;81.15
6567;BME280;3317;43.994;22.878;2023-01-13T03:10:10;101653.53;;;5.67;81.13
6567;BME280;3317;43.994;22.878;2023-01-13T03:12:45;101652.56;;;5.68;80.73
6567;BME280;3317;43.994;22.878;2023-01-13T03:15:19;101654.19;;;5.70;80.62
6567;BME280;3317;43.994;22.878;2023-01-13T03:17:56;101651.28;;;5.73;80.15
6567;BME280;3317;43.994;22.878;2023-01-13T03:20:32;101626.16;;;5.60;80.41
6567;BME280;3317;43.994;22.878;2023-01-13T03:23:06;101648.59;;;5.73;80.41
6567;BME280;3317;43.994;22.878;2023-01-13T03:25:38;101644.94;;;5.74;80.00
6567;BME280;3317;43.994;22.878;2023-01-13T03:28:08;101646.66;;;5.75;79.98
6567;BME280;3317;43.994;22.878;2023-01-13T03:30:40;101645.72;;;5.76;80.11
6567;BME280;3317;43.994;22.878;2023-01-13T03:33:14;101649.16;;;5.78;79.97
6567;BME280;3317;43.994;22.878;2023-01-13T03:35:44;101647.44;;;5.77;79.82
6567;BME280;3317;43.994;22.878;2023-01-13T03:38:15;101601.78;;;5.48;79.48
6567;BME280;3317;43.994;22.878;2023-01-13T03:40:47;101651.84;;;5.78;79.46
6567;BME280;3317;43.994;22.878;2023-01-13T03:43:20;101654.44;;;5.80;79.72
6567;BME280;3317;43.994;22.878;2023-01-13T03:46:12;101652.72;;;5.79;79.64
6567;BME280;3317;43.994;22.878;2023-01-13T03:48:44;101654.44;;;5.80;79.71
6567;BME280;3317;43.994;22.878;2023-01-13T03:51:14;101649.16;;;5.78;79.46
6567;BME280;3317;43.994;22.878;2023-01-13T03:53:46;101643.22;;;5.73;79.53
6567;BME280;3317;43.994;22.878;2023-01-13T03:56:17;101653.47;;;5.81;79.61
6567;BME280;3317;43.994;22.878;2023-01-13T03:58:48;101661.56;;;5.81;79.42
6567;BME280;3317;43.994;22.878;2023-01-13T04:01:20;101659.63;;;5.83;79.36
6567;BME280;3317;43.994;22.878;2023-01-13T04:03:54;101658.78;;;5.83;79.77
6567;BME280;3317;43.994;22.878;2023-01-13T04:06:30;101657.00;;;5.82;80.23
6567;BME280;3317;43.994;22.878;2023-01-13T04:09:08;101664.44;;;5.78;80.58
6567;BME280;3317;43.994;22.878;2023-01-13T04:11:41;101659.16;;;5.76;81.05
6567;BME280;3317;43.994;22.878;2023-01-13T04:14:10;101666.25;;;5.77;81.34
6567;BME280;3317;43.994;22.878;2023-01-13T04:16:39;101663.88;;;5.73;81.73
6567;BME280;3317;43.994;22.878;2023-01-13T04:19:08;101671.94;;;5.73;82.14
6567;BME280;3317;43.994;22.878;2023-01-13T04:21:35;101677.44;;;5.71;82.34
6567;BME280;3317;43.994;22.878;2023-01-13T04:24:01;101668.56;;;5.69;82.64
6567;BME280;3317;43.994;22.878;2023-01-13T04:26:28;101665.03;;;5.69;83.19
6567;BME280;3317;43.994;22.878;2023-01-13T04:28:55;101647.00;;;5.56;83.09
6567;BME280;3317;43.994;22.878;2023-01-13T04:31:22;101667.06;;;5.65;83.25
6567;BME280;3317;43.994;22.878;2023-01-13T04:33:49;101675.88;;;5.67;83.14
6567;BME280;3317;43.994;22.878;2023-01-13T04:36:17;101668.78;;;5.66;82.84
6567;BME280;3317;43.994;22.878;2023-01-13T04:38:49;101684.16;;;5.64;82.76
6567;BME280;3317;43.994;22.878;2023-01-13T04:41:16;101686.09;;;5.62;82.93
6567;BME280;3317;43.994;22.878;2023-01-13T04:43:43;101693.28;;;5.61;83.46
6567;BME280;3317;43.994;22.878;2023-01-13T04:46:10;101679.81;;;5.61;83.33
6567;BME280;3317;43.994;22.878;2023-01-13T04:48:37;101681.66;;;5.61;82.81
6567;BME280;3317;43.994;22.878;2023-01-13T04:51:04;101689.63;;;5.62;82.70
6567;BME280;3317;43.994;22.878;2023-01-13T04:53:33;101692.31;;;5.62;82.86
6567;BME280;3317;43.994;22.878;2023-01-13T04:56:00;101683.41;;;5.62;82.72
6567;BME280;3317;43.994;22.878;2023-01-13T04:58:27;101692.03;;;5.67;82.75
6567;BME280;3317;43.994;22.878;2023-01-13T05:00:53;101686.84;;;5.64;82.47
6567;BME280;3317;43.994;22.878;2023-01-13T05:03:21;101682.34;;;5.64;82.33
6567;BME280;3317;43.994;22.878;2023-01-13T05:05:50;101681.66;;;5.61;82.44
6567;BME280;3317;43.994;22.878;2023-01-13T05:08:17;101685.19;;;5.61;82.82
6567;BME280;3317;43.994;22.878;2023-01-13T05:10:45;101683.59;;;5.59;83.29
6567;BME280;3317;43.994;22.878;2023-01-13T05:13:12;101693.47;;;5.58;83.89
6567;BME280;3317;43.994;22.878;2023-01-13T05:15:57;101690.09;;;5.55;84.15
6567;BME280;3317;43.994;22.878;2023-01-13T05:18:42;101690.03;;;5.56;83.80
6567;BME280;3317;43.994;22.878;2023-01-13T05:21:09;101695.69;;;5.52;83.45
6567;BME280;3317;43.994;22.878;2023-01-13T05:23:57;101708.28;;;5.51;83.35
6567;BME280;3317;43.994;22.878;2023-01-13T05:26:42;101699.63;;;5.46;83.45
6567;BME280;3317;43.994;22.878;2023-01-13T05:29:09;101701.56;;;5.44;83.32
6567;BME280;3317;43.994;22.878;2023-01-13T05:31:36;101701.56;;;5.44;83.70
6567;BME280;3317;43.994;22.878;2023-01-13T05:34:03;101703.28;;;5.45;83.93
6567;BME280;3317;43.994;22.878;2023-01-13T05:36:30;101702.53;;;5.43;83.59
6567;BME280;3317;43.994;22.878;2023-01-13T05:38:57;101701.56;;;5.44;83.60
6567;BME280;3317;43.994;22.878;2023-01-13T05:41:24;101706.94;;;5.44;83.85
6567;BME280;3317;43.994;22.878;2023-01-13T05:44:10;101713.84;;;5.48;83.52
6567;BME280;3317;43.994;22.878;2023-01-13T05:46:36;101710.19;;;5.49;83.23
6567;BME280;3317;43.994;22.878;2023-01-13T05:49:04;101709.13;;;5.52;82.58
6567;BME280;3317;43.994;22.878;2023-01-13T05:51:31;101699.84;;;5.43;82.52
6567;BME280;3317;43.994;22.878;2023-01-13T05:53:58;101705.69;;;5.49;82.07
6567;BME280;3317;43.994;22.878;2023-01-13T05:56:25;101708.84;;;5.56;83.36
6567;BME280;3317;43.994;22.878;2023-01-13T05:58:52;101701.84;;;5.54;83.05
6567;BME280;3317;43.994;22.878;2023-01-13T06:01:20;101705.47;;;5.53;83.30
6567;BME280;3317;43.994;22.878;2023-01-13T06:03:47;101702.91;;;5.51;82.94
6567;BME280;3317;43.994;22.878;2023-01-13T06:06:14;101704.53;;;5.54;82.58
6567;BME280;3317;43.994;22.878;2023-01-13T06:08:41;101705.69;;;5.49;83.12
6567;BME280;3317;43.994;22.878;2023-01-13T06:11:08;101702.91;;;5.51;82.77
6567;BME280;3317;43.994;22.878;2023-01-13T06:13:34;101710.00;;;5.52;82.78
6567;BME280;3317;43.994;22.878;2023-01-13T06:16:01;101713.56;;;5.53;82.38
6567;BME280;3317;43.994;22.878;2023-01-13T06:18:30;101712.59;;;5.54;82.47
6567;BME280;3317;43.994;22.878;2023-01-13T06:20:57;101702.78;;;5.53;82.50
6567;BME280;3317;43.994;22.878;2023-01-13T06:23:23;101712.50;;;5.55;82.56
6567;BME280;3317;43.994;22.878;2023-01-13T06:25:57;101718.66;;;5.57;82.56
6567;BME280;3317;43.994;22.878;2023-01-13T06:28:26;101722.22;;;5.58;82.24
6567;BME280;3317;43.994;22.878;2023-01-13T06:30:56;101714.03;;;5.59;82.71
6567;BME280;3317;43.994;22.878;2023-01-13T06:33:27;101716.50;;;5.62;82.71
6567;BME280;3317;43.994;22.878;2023-01-13T06:36:00;101722.78;;;5.63;82.38
6567;BME280;3317;43.994;22.878;2023-01-13T06:38:29;101719.88;;;5.66;82.14
6567;BME280;3317;43.994;22.878;2023-01-13T06:40:56;101729.69;;;5.67;82.04
6567;BME280;3317;43.994;22.878;2023-01-13T06:43:23;101724.13;;;5.70;81.84
6567;BME280;3317;43.994;22.878;2023-01-13T06:45:51;101698.00;;;5.58;81.68
6567;BME280;3317;43.994;22.878;2023-01-13T06:48:22;101722.28;;;5.71;81.38
6567;BME280;3317;43.994;22.878;2023-01-13T06:50:50;101721.22;;;5.73;81.61
6567;BME280;3317;43.994;22.878;2023-01-13T06:53:18;101718.53;;;5.73;80.98
6567;BME280;3317;43.994;22.878;2023-01-13T06:55:45;101723.16;;;5.71;81.49
6567;BME280;3317;43.994;22.878;2023-01-13T06:58:12;101723.16;;;5.71;82.34
6567;BME280;3317;43.994;22.878;2023-01-13T07:00:39;101720.34;;;5.73;82.20
6567;BME280;3317;43.994;22.878;2023-01-13T07:03:08;101723.16;;;5.71;82.43
6567;BME280;3317;43.994;22.878;2023-01-13T07:05:35;101720.25;;;5.74;82.54
6567;BME280;3317;43.994;22.878;2023-01-13T07:08:03;101722.00;;;5.75;82.01
6567;BME280;3317;43.994;22.878;2023-01-13T07:10:31;101723.03;;;5.73;81.83
6567;BME280;3317;43.994;22.878;2023-01-13T07:12:59;101729.50;;;5.70;82.79
6567;BME280;3317;43.994;22.878;2023-01-13T07:15:52;101722.69;;;5.64;83.57
6567;BME280;3317;43.994;22.878;2023-01-13T07:18:19;101728.16;;;5.63;83.80
6567;BME280;3317;43.994;22.878;2023-01-13T07:20:51;101730.06;;;5.61;84.04
6567;BME280;3317;43.994;22.878;2023-01-13T07:23:18;101726.50;;;5.60;84.31
6567;BME280;3317;43.994;22.878;2023-01-13T07:25:46;101723.94;;;5.59;84.67
6567;BME280;3317;43.994;22.878;2023-01-13T07:28:13;101731.50;;;5.67;84.74
6567;BME280;3317;43.994;22.878;2023-01-13T07:30:40;101736.31;;;5.61;84.53
6567;BME280;3317;43.994;22.878;2023-01-13T07:33:07;101739.84;;;5.76;87.30
6567;BME280;3317;43.994;22.878;2023-01-13T07:35:34;101745.34;;;5.89;87.43
6567;BME280;3317;43.994;22.878;2023-01-13T07:38:01;101741.19;;;5.98;87.72
6567;BME280;3317;43.994;22.878;2023-01-13T07:40:28;101747.72;;;6.09;88.50
6567;BME280;3317;43.994;22.878;2023-01-13T07:42:56;101751.44;;;6.20;88.86
6567;BME280;3317;43.994;22.878;2023-01-13T07:45:40;101752.28;;;6.36;87.30
6567;BME280;3317;43.994;22.878;2023-01-13T07:48:08;101747.72;;;6.36;85.50
6567;BME280;3317;43.994;22.878;2023-01-13T07:50:35;101748.03;;;6.31;85.25
6567;BME280;3317;43.994;22.878;2023-01-13T07:53:01;101745.84;;;6.24;85.53
6567;BME280;3317;43.994;22.878;2023-01-13T07:55:28;101749.41;;;6.24;85.14
6567;BME280;3317;43.994;22.878;2023-01-13T07:57:57;101751.44;;;6.20;85.10
6567;BME280;3317;43.994;22.878;2023-01-13T08:00:23;101755.69;;;6.10;84.59
6567;BME280;3317;43.994;22.878;2023-01-13T08:02:50;101751.28;;;6.09;84.67
6567;BME280;3317;43.994;22.878;2023-01-13T08:05:17;101754.03;;;6.08;85.06
6567;BME280;3317;43.994;22.878;2023-01-13T08:07:44;101756.34;;;6.14;84.45
6567;BME280;3317;43.994;22.878;2023-01-13T08:10:11;101756.34;;;6.14;84.35
6567;BME280;3317;43.994;22.878;2023-01-13T08:12:38;101762.03;;;6.09;84.74
6567;BME280;3317;43.994;22.878;2023-01-13T08:15:24;101770.31;;;6.06;84.79
6567;BME280;3317;43.994;22.878;2023-01-13T08:17:50;101763.66;;;5.97;85.04
6567;BME280;3317;43.994;22.878;2023-01-13T08:20:17;101763.84;;;5.94;85.55
6567;BME280;3317;43.994;22.878;2023-01-13T08:22:44;101771.34;;;5.89;85.49
6567;BME280;3317;43.994;22.878;2023-01-13T08:25:11;101767.03;;;5.86;85.67
6567;BME280;3317;43.994;22.878;2023-01-13T08:27:39;101755.72;;;5.81;86.11
6567;BME280;3317;43.994;22.878;2023-01-13T08:30:07;101778.47;;;5.90;86.25
6567;BME280;3317;43.994;22.878;2023-01-13T08:32:35;101777.41;;;5.92;85.98
6567;BME280;3317;43.994;22.878;2023-01-13T08:35:02;101780.78;;;5.96;86.14
6567;BME280;3317;43.994;22.878;2023-01-13T08:37:29;101779.63;;;6.00;86.04
6567;BME280;3317;43.994;22.878;2023-01-13T08:39:56;101783.00;;;6.04;85.87
6567;BME280;3317;43.994;22.878;2023-01-13T08:42:23;101777.44;;;6.07;85.96
6567;BME280;3317;43.994;22.878;2023-01-13T08:44:52;101776.25;;;6.11;85.39
6567;BME280;3317;43.994;22.878;2023-01-13T08:47:19;101773.69;;;6.10;85.13
6567;BME280;3317;43.994;22.878;2023-01-13T08:49:47;101770.88;;;6.11;85.44
6567;BME280;3317;43.994;22.878;2023-01-13T08:52:15;101770.56;;;6.16;84.99
6567;BME280;3317;43.994;22.878;2023-01-13T08:54:42;101770.03;;;6.11;85.11
6567;BME280;3317;43.994;22.878;2023-01-13T08:57:09;101768.47;;;6.06;85.28
6567;BME280;3317;43.994;22.878;2023-01-13T08:59:36;101765.41;;;5.98;85.43
6567;BME280;3317;43.994;22.878;2023-01-13T09:02:05;101767.00;;;6.01;85.66
6567;BME280;3317;43.994;22.878;2023-01-13T09:04:37;101769.34;;;6.07;85.35
6567;BME280;3317;43.994;22.878;2023-01-13T09:07:06;101761.75;;;6.14;85.35
6567;BME280;3317;43.994;22.878;2023-01-13T09:09:33;101776.72;;;6.18;85.49
6567;BME280;3317;43.994;22.878;2023-01-13T09:12:00;101772.88;;;6.22;85.46
6567;BME280;3317;43.994;22.878;2023-01-13T09:14:44;101759.09;;;6.27;85.26
6567;BME280;3317;43.994;22.878;2023-01-13T09:17:11;101756.88;;;6.33;84.93
6567;BME280;3317;43.994;22.878;2023-01-13T09:19:39;101759.06;;;6.41;84.50
6567;BME280;3317;43.994;22.878;2023-01-13T09:22:09;101753.28;;;6.47;84.37
6567;BME280;3317;43.994;22.878;2023-01-13T09:24:39;101747.78;;;6.49;84.46
6567;BME280;3317;43.994;22.878;2023-01-13T09:27:07;101748.88;;;6.59;84.25
6567;BME280;3317;43.994;22.878;2023-01-13T09:29:34;101750.63;;;6.60;84.05
6567;BME280;3317;43.994;22.878;2023-01-13T09:32:01;101747.59;;;6.65;83.57
6567;BME280;3317;43.994;22.878;2023-01-13T09:34:28;101749.47;;;6.65;83.92
6567;BME280;3317;43.994;22.878;2023-01-13T09:37:13;101757.94;;;6.58;84.15
6567;BME280;3317;43.994;22.878;2023-01-13T09:39:40;101747.59;;;6.52;84.06
6567;BME280;3317;43.994;22.878;2023-01-13T09:42:14;101744.31;;;6.47;84.01
6567;BME280;3317;43.994;22.878;2023-01-13T09:45:03;101743.00;;;6.40;84.47
6567;BME280;3317;43.994;22.878;2023-01-13T09:47:34;101696.38;;;6.12;84.51
6567;BME280;3317;43.994;22.878;2023-01-13T09:50:17;101744.53;;;6.44;85.08
6567;BME280;3317;43.994;22.878;2023-01-13T09:52:47;101698.78;;;6.16;84.73
6567;BME280;3317;43.994;22.878;2023-01-13T09:55:16;101739.13;;;6.44;85.27
6567;BME280;3317;43.994;22.878;2023-01-13T09:57:44;101731.63;;;6.49;84.94
6567;BME280;3317;43.994;22.878;2023-01-13T10:00:12;101732.09;;;6.56;85.13
6567;BME280;3317;43.994;22.878;2023-01-13T10:02:57;101720.66;;;6.52;84.95
6567;BME280;3317;43.994;22.878;2023-01-13T10:05:33;101738.56;;;6.66;85.17
6567;BME280;3317;43.994;22.878;2023-01-13T10:08:06;101735.16;;;6.77;84.51
6567;BME280;3317;43.994;22.878;2023-01-13T10:10:40;101719.22;;;6.74;84.37
6567;BME280;3317;43.994;22.878;2023-01-13T10:13:15;101724.81;;;6.84;84.17
6567;BME280;3317;43.994;22.878;2023-01-13T10:15:51;101719.22;;;6.87;83.86
6567;BME280;3317;43.994;22.878;2023-01-13T10:18:26;101720.28;;;6.84;83.39
6567;BME280;3317;43.994;22.878;2023-01-13T10:21:00;101724.38;;;6.90;82.96
6567;BME280;3317;43.994;22.878;2023-01-13T10:26:33;101712.34;;;7.09;82.10
6567;BME280;3317;43.994;22.878;2023-01-13T10:29:02;101709.13;;;7.16;82.00
6567;BME280;3317;43.994;22.878;2023-01-13T10:31:29;101713.31;;;7.21;81.90
6567;BME280;3317;43.994;22.878;2023-01-13T10:33:59;101705.22;;;7.21;81.68
6567;BME280;3317;43.994;22.878;2023-01-13T10:36:26;101706.72;;;7.25;81.52
6567;BME280;3317;43.994;22.878;2023-01-13T10:39:06;101696.81;;;7.25;81.41
6567;BME280;3317;43.994;22.878;2023-01-13T10:41:34;101699.19;;;7.30;81.32
6567;BME280;3317;43.994;22.878;2023-01-13T10:44:03;101697.13;;;7.33;81.14
6567;BME280;3317;43.994;22.878;2023-01-13T10:46:32;101697.88;;;7.36;80.94
6567;BME280;3317;43.994;22.878;2023-01-13T10:49:00;101693.34;;;7.36;81.18
6567;BME280;3317;43.994;22.878;2023-01-13T10:51:29;101687.75;;;7.39;80.70
6567;BME280;3317;43.994;22.878;2023-01-13T10:54:00;101682.97;;;7.43;80.54
6567;BME280;3317;43.994;22.878;2023-01-13T10:56:30;101669.41;;;7.31;81.00
6567;BME280;3317;43.994;22.878;2023-01-13T10:59:13;101684.94;;;7.41;80.91
6567;BME280;3317;43.994;22.878;2023-01-13T11:01:41;101684.69;;;7.44;80.82
6567;BME280;3317;43.994;22.878;2023-01-13T11:04:30;101685.34;;;7.47;81.10
6567;BME280;3317;43.994;22.878;2023-01-13T11:06:58;101680.84;;;7.48;81.10
6567;BME280;3317;43.994;22.878;2023-01-13T11:09:29;101687.06;;;7.49;81.30
6567;BME280;3317;43.994;22.878;2023-01-13T11:11:57;101686.22;;;7.48;81.14
6567;BME280;3317;43.994;22.878;2023-01-13T11:14:27;101685.66;;;7.56;80.84
6567;BME280;3317;43.994;22.878;2023-01-13T11:17:20;101682.09;;;7.68;80.54
6567;BME280;3317;43.994;22.878;2023-01-13T11:19:56;101675.25;;;7.75;80.23
6567;BME280;3317;43.994;22.878;2023-01-13T11:22:28;101680.72;;;7.87;80.16
6567;BME280;3317;43.994;22.878;2023-01-13T11:25:01;101675.41;;;7.98;79.90
6567;BME280;3317;43.994;22.878;2023-01-13T11:27:39;101678.25;;;8.08;79.79
6567;BME280;3317;43.994;22.878;2023-01-13T11:30:23;101680.28;;;8.17;79.76
6567;BME280;3317;43.994;22.878;2023-01-13T11:33:08;101677.00;;;8.25;79.54
6567;BME280;3317;43.994;22.878;2023-01-13T11:35:44;101669.44;;;8.30;79.17
6567;BME280;3317;43.994;22.878;2023-01-13T11:38:16;101666.25;;;8.37;78.99
6567;BME280;3317;43.994;22.878;2023-01-13T11:40:48;101667.97;;;8.38;78.86
6567;BME280;3317;43.994;22.878;2023-01-13T11:43:20;101664.28;;;8.39;78.57
6567;BME280;3317;43.994;22.878;2023-01-13T11:45:54;101661.88;;;8.47;78.34
6567;BME280;3317;43.994;22.878;2023-01-13T11:48:24;101663.38;;;8.51;77.99
6567;BME280;3317;43.994;22.878;2023-01-13T11:50:59;101667.47;;;8.57;77.94
6567;BME280;3317;43.994;22.878;2023-01-13T11:53:45;101659.88;;;8.62;77.92
6567;BME280;3317;43.994;22.878;2023-01-13T11:56:40;101660.63;;;8.64;77.41
6567;BME280;3317;43.994;22.878;2023-01-13T11:59:24;101661.34;;;8.66;77.34
6567;BME280;3317;43.994;22.878;2023-01-13T12:02:13;101658.56;;;8.68;77.43
6567;BME280;3317;43.994;22.878;2023-01-13T12:04:47;101637.13;;;8.53;77.16
6567;BME280;3317;43.994;22.878;2023-01-13T12:07:20;101652.97;;;8.58;77.17
6567;BME280;3317;43.994;22.878;2023-01-13T12:10:01;101649.78;;;8.53;76.19
6567;BME280;3317;43.994;22.878;2023-01-13T12:12:47;101654.09;;;8.55;76.73
6567;BME280;3317;43.994;22.878;2023-01-13T12:15:35;101653.47;;;8.52;76.61
6567;BME280;3317;43.994;22.878;2023-01-13T12:18:17;101649.59;;;8.43;76.49
6567;BME280;3317;43.994;22.878;2023-01-13T12:21:01;101645.63;;;8.36;76.41
6567;BME280;3317;43.994;22.878;2023-01-13T12:23:34;101641.84;;;8.38;76.42
6567;BME280;3317;43.994;22.878;2023-01-13T12:26:06;101641.50;;;8.43;76.69
6567;BME280;3317;43.994;22.878;2023-01-13T12:28:41;101644.94;;;8.45;76.84
6567;BME280;3317;43.994;22.878;2023-01-13T12:31:10;101642.66;;;8.52;76.80
6567;BME280;3317;43.994;22.878;2023-01-13T12:33:47;101640.44;;;8.57;76.53
6567;BME280;3317;43.994;22.878;2023-01-13T12:36:22;101643.03;;;8.58;76.69
6567;BME280;3317;43.994;22.878;2023-01-13T12:38:55;101633.84;;;8.61;76.48
6567;BME280;3317;43.994;22.878;2023-01-13T12:41:32;101640.84;;;8.64;76.50
6567;BME280;3317;43.994;22.878;2023-01-13T12:44:03;101642.56;;;8.65;76.10
6567;BME280;3317;43.994;22.878;2023-01-13T12:46:47;101636.66;;;8.59;76.09
6567;BME280;3317;43.994;22.878;2023-01-13T12:49:23;101644.91;;;8.69;75.94
6567;BME280;3317;43.994;22.878;2023-01-13T12:52:18;101650.69;;;8.76;76.28
6567;BME280;3317;43.994;22.878;2023-01-13T12:55:07;101643.09;;;8.81;76.17
6567;BME280;3317;43.994;22.878;2023-01-13T12:57:35;101647.38;;;8.84;76.07
6567;BME280;3317;43.994;22.878;2023-01-13T13:00:16;101642.59;;;8.87;75.79
6567;BME280;3317;43.994;22.878;2023-01-13T13:05:54;101641.88;;;8.85;75.37
6567;BME280;3317;43.994;22.878;2023-01-13T13:08:29;101641.97;;;8.84;74.79
6567;BME280;3317;43.994;22.878;2023-01-13T13:11:19;101644.66;;;8.72;74.16
6567;BME280;3317;43.994;22.878;2023-01-13T13:14:05;101641.09;;;8.72;74.23
6567;BME280;3317;43.994;22.878;2023-01-13T13:16:45;101647.50;;;8.71;74.70
6567;BME280;3317;43.994;22.878;2023-01-13T13:19:40;101656.34;;;8.73;74.82
6567;BME280;3317;43.994;22.878;2023-01-13T13:25:19;101658.75;;;8.65;74.87
6567;BME280;3317;43.994;22.878;2023-01-13T13:27:52;101649.53;;;8.56;74.80
6567;BME280;3317;43.994;22.878;2023-01-13T13:30:26;101648.28;;;8.49;74.78
6567;BME280;3317;43.994;22.878;2023-01-13T13:33:20;101644.66;;;8.37;75.36
6567;BME280;3317;43.994;22.878;2023-01-13T13:36:06;101632.94;;;8.25;75.85
6567;BME280;3317;43.994;22.878;2023-01-13T13:38:56;101645.31;;;8.16;76.30
6567;BME280;3317;43.994;22.878;2023-01-13T13:41:45;101644.84;;;7.98;76.89
6567;BME280;3317;43.994;22.878;2023-01-13T13:44:34;101631.63;;;7.82;77.44
6567;BME280;3317;43.994;22.878;2023-01-13T13:47:19;101641.03;;;7.76;78.18